sensor_id;sensor_type;location;lat;lon;timestamp;P1;durP1;ratioP1;P2;durP2;ratioP2
18857;SDS011;9558;50.178;8.370;2023-05-17T00:01:13;4.55;;;0.88;;
18857;SDS011;9558;50.178;8.370;2023-05-17T00:06:46;3.85;;;0.45;;
18857;SDS011;9558;50.178;8.370;2023-05-17T00:12:20;1.00;;;0.52;;
18857;SDS011;9558;50.178;8.370;2023-05-17T00:17:55;1.33;;;0.30;;
18857;SDS011;9558;50.178;8.370;2023-05-17T00:20:42;4.68;;;0.60;;
18857;SDS011;9558;50.178;8.370;2023-05-17T00:26:15;2.17;;;0.77;;
18857;SDS011;9558;50.178;8.370;2023-05-17T00:31:50;0.40;;;0.40;;
18857;SDS011;9558;50.178;8.370;2023-05-17T00:34:37;2.33;;;0.68;;
18857;SDS011;9558;50.178;8.370;2023-05-17T00:37:24;3.83;;;1.25;;
18857;SDS011;9558;50.178;8.370;2023-05-17T00:40:11;7.00;;;1.10;;
18857;SDS011;9558;50.178;8.370;2023-05-17T00:42:59;3.65;;;1.33;;
18857;SDS011;9558;50.178;8.370;2023-05-17T00:45:45;2.05;;;0.65;;
18857;SDS011;9558;50.178;8.370;2023-05-17T00:48:35;1.15;;;0.73;;
18857;SDS011;9558;50.178;8.370;2023-05-17T00:51:22;0.75;;;0.63;;
18857;SDS011;9558;50.178;8.370;2023-05-17T00:56:56;0.95;;;0.30;;
18857;SDS011;9558;50.178;8.370;2023-05-17T00:59:44;0.50;;;0.50;;
18857;SDS011;9558;50.178;8.370;2023-05-17T01:05:19;3.05;;;0.65;;
18857;SDS011;9558;50.178;8.370;2023-05-17T01:08:05;1.95;;;0.47;;
18857;SDS011;9558;50.178;8.370;2023-05-17T01:10:53;2.20;;;1.17;;
18857;SDS011;9558;50.178;8.370;2023-05-17T01:13:47;2.33;;;0.93;;
18857;SDS011;9558;50.178;8.370;2023-05-17T01:16:42;7.03;;;0.85;;
18857;SDS011;9558;50.178;8.370;2023-05-17T01:19:41;7.47;;;0.60;;
18857;SDS011;9558;50.178;8.370;2023-05-17T01:22:38;1.52;;;0.75;;
18857;SDS011;9558;50.178;8.370;2023-05-17T01:25:35;1.65;;;0.68;;
18857;SDS011;9558;50.178;8.370;2023-05-17T01:28:32;1.10;;;0.57;;
18857;SDS011;9558;50.178;8.370;2023-05-17T01:31:22;1.65;;;0.75;;
18857;SDS011;9558;50.178;8.370;2023-05-17T01:34:11;1.40;;;0.57;;
18857;SDS011;9558;50.178;8.370;2023-05-17T01:36:58;1.15;;;0.65;;
18857;SDS011;9558;50.178;8.370;2023-05-17T01:42:31;1.17;;;0.40;;
18857;SDS011;9558;50.178;8.370;2023-05-17T01:45:22;2.30;;;0.80;;
18857;SDS011;9558;50.178;8.370;2023-05-17T01:48:14;0.40;;;0.40;;
18857;SDS011;9558;50.178;8.370;2023-05-17T01:51:06;4.80;;;0.80;;
18857;SDS011;9558;50.178;8.370;2023-05-17T01:53:56;3.67;;;1.23;;
18857;SDS011;9558;50.178;8.370;2023-05-17T01:56:47;2.03;;;0.98;;
18857;SDS011;9558;50.178;8.370;2023-05-17T01:59:40;3.65;;;1.00;;
18857;SDS011;9558;50.178;8.370;2023-05-17T02:02:32;1.45;;;0.70;;
18857;SDS011;9558;50.178;8.370;2023-05-17T02:05:18;3.00;;;0.85;;
18857;SDS011;9558;50.178;8.370;2023-05-17T02:08:05;1.25;;;0.60;;
18857;SDS011;9558;50.178;8.370;2023-05-17T02:13:39;0.95;;;0.43;;
18857;SDS011;9558;50.178;8.370;2023-05-17T02:16:26;1.98;;;0.77;;
18857;SDS011;9558;50.178;8.370;2023-05-17T02:19:14;1.70;;;0.43;;
18857;SDS011;9558;50.178;8.370;2023-05-17T02:22:00;1.83;;;1.17;;
18857;SDS011;9558;50.178;8.370;2023-05-17T02:24:47;2.03;;;0.98;;
18857;SDS011;9558;50.178;8.370;2023-05-17T02:27:34;1.60;;;0.45;;
18857;SDS011;9558;50.178;8.370;2023-05-17T02:30:21;4.18;;;0.70;;
18857;SDS011;9558;50.178;8.370;2023-05-17T02:33:09;1.77;;;0.70;;
18857;SDS011;9558;50.178;8.370;2023-05-17T02:35:57;1.25;;;0.98;;
18857;SDS011;9558;50.178;8.370;2023-05-17T02:38:43;1.73;;;0.88;;
18857;SDS011;9558;50.178;8.370;2023-05-17T02:44:17;1.02;;;0.50;;
18857;SDS011;9558;50.178;8.370;2023-05-17T02:47:04;2.15;;;1.08;;
18857;SDS011;9558;50.178;8.370;2023-05-17T02:49:51;5.43;;;0.65;;
18857;SDS011;9558;50.178;8.370;2023-05-17T02:55:26;0.90;;;0.88;;
18857;SDS011;9558;50.178;8.370;2023-05-17T02:58:12;1.52;;;0.80;;
18857;SDS011;9558;50.178;8.370;2023-05-17T03:03:46;2.33;;;0.52;;
18857;SDS011;9558;50.178;8.370;2023-05-17T03:06:33;1.83;;;1.02;;
18857;SDS011;9558;50.178;8.370;2023-05-17T03:12:08;1.20;;;0.73;;
18857;SDS011;9558;50.178;8.370;2023-05-17T03:14:55;6.80;;;0.57;;
18857;SDS011;9558;50.178;8.370;2023-05-17T03:17:42;6.32;;;1.42;;
18857;SDS011;9558;50.178;8.370;2023-05-17T03:23:15;4.60;;;1.45;;
18857;SDS011;9558;50.178;8.370;2023-05-17T03:26:04;2.78;;;0.88;;
18857;SDS011;9558;50.178;8.370;2023-05-17T03:28:50;2.63;;;0.95;;
18857;SDS011;9558;50.178;8.370;2023-05-17T03:31:37;5.63;;;1.00;;
18857;SDS011;9558;50.178;8.370;2023-05-17T03:34:24;5.80;;;1.10;;
18857;SDS011;9558;50.178;8.370;2023-05-17T03:37:11;5.80;;;0.98;;
18857;SDS011;9558;50.178;8.370;2023-05-17T03:39:57;8.00;;;1.05;;
18857;SDS011;9558;50.178;8.370;2023-05-17T03:42:45;3.05;;;1.08;;
18857;SDS011;9558;50.178;8.370;2023-05-17T03:45:32;6.70;;;0.80;;
18857;SDS011;9558;50.178;8.370;2023-05-17T03:48:19;1.67;;;0.77;;
18857;SDS011;9558;50.178;8.370;2023-05-17T03:51:06;2.15;;;1.30;;
18857;SDS011;9558;50.178;8.370;2023-05-17T03:53:56;2.97;;;1.08;;
18857;SDS011;9558;50.178;8.370;2023-05-17T03:56:43;7.88;;;1.00;;
18857;SDS011;9558;50.178;8.370;2023-05-17T03:59:32;2.22;;;1.20;;
18857;SDS011;9558;50.178;8.370;2023-05-17T04:02:19;1.75;;;1.00;;
18857;SDS011;9558;50.178;8.370;2023-05-17T04:05:06;5.45;;;1.17;;
18857;SDS011;9558;50.178;8.370;2023-05-17T04:07:53;1.55;;;0.95;;
18857;SDS011;9558;50.178;8.370;2023-05-17T04:10:40;5.13;;;1.25;;
18857;SDS011;9558;50.178;8.370;2023-05-17T04:13:27;2.83;;;0.88;;
18857;SDS011;9558;50.178;8.370;2023-05-17T04:16:15;1.50;;;0.85;;
18857;SDS011;9558;50.178;8.370;2023-05-17T04:19:02;2.20;;;1.05;;
18857;SDS011;9558;50.178;8.370;2023-05-17T04:21:49;3.55;;;1.30;;
18857;SDS011;9558;50.178;8.370;2023-05-17T04:24:36;3.03;;;1.20;;
18857;SDS011;9558;50.178;8.370;2023-05-17T04:27:23;4.65;;;1.35;;
18857;SDS011;9558;50.178;8.370;2023-05-17T04:30:10;5.30;;;0.88;;
18857;SDS011;9558;50.178;8.370;2023-05-17T04:32:59;1.88;;;1.10;;
18857;SDS011;9558;50.178;8.370;2023-05-17T04:35:46;8.25;;;0.90;;
18857;SDS011;9558;50.178;8.370;2023-05-17T04:41:20;2.80;;;0.82;;
18857;SDS011;9558;50.178;8.370;2023-05-17T04:46:53;2.05;;;0.68;;
18857;SDS011;9558;50.178;8.370;2023-05-17T04:49:41;3.00;;;0.82;;
18857;SDS011;9558;50.178;8.370;2023-05-17T04:52:28;1.08;;;0.70;;
18857;SDS011;9558;50.178;8.370;2023-05-17T04:55:15;8.00;;;1.45;;
18857;SDS011;9558;50.178;8.370;2023-05-17T04:58:02;5.22;;;1.65;;
18857;SDS011;9558;50.178;8.370;2023-05-17T05:00:48;4.65;;;1.35;;
18857;SDS011;9558;50.178;8.370;2023-05-17T05:06:23;5.30;;;3.88;;
18857;SDS011;9558;50.178;8.370;2023-05-17T05:09:10;3.30;;;2.03;;
18857;SDS011;9558;50.178;8.370;2023-05-17T05:14:44;2.08;;;1.00;;
18857;SDS011;9558;50.178;8.370;2023-05-17T05:20:18;12.07;;;4.95;;
18857;SDS011;9558;50.178;8.370;2023-05-17T05:25:53;8.50;;;4.47;;
18857;SDS011;9558;50.178;8.370;2023-05-17T05:31:27;9.40;;;5.00;;
18857;SDS011;9558;50.178;8.370;2023-05-17T05:34:14;3.58;;;2.65;;
18857;SDS011;9558;50.178;8.370;2023-05-17T05:39:49;2.90;;;1.90;;
18857;SDS011;9558;50.178;8.370;2023-05-17T05:42:36;7.35;;;1.52;;
18857;SDS011;9558;50.178;8.370;2023-05-17T05:45:23;3.40;;;1.00;;
18857;SDS011;9558;50.178;8.370;2023-05-17T05:48:10;4.45;;;1.30;;
18857;SDS011;9558;50.178;8.370;2023-05-17T05:50:56;4.57;;;1.25;;
18857;SDS011;9558;50.178;8.370;2023-05-17T05:53:44;3.22;;;1.13;;
18857;SDS011;9558;50.178;8.370;2023-05-17T05:56:32;3.10;;;1.42;;
18857;SDS011;9558;50.178;8.370;2023-05-17T05:59:19;2.75;;;0.80;;
18857;SDS011;9558;50.178;8.370;2023-05-17T06:02:06;4.05;;;1.70;;
18857;SDS011;9558;50.178;8.370;2023-05-17T06:04:52;6.47;;;1.40;;
18857;SDS011;9558;50.178;8.370;2023-05-17T06:10:26;5.50;;;1.23;;
18857;SDS011;9558;50.178;8.370;2023-05-17T06:13:14;2.85;;;1.02;;
18857;SDS011;9558;50.178;8.370;2023-05-17T06:16:01;3.33;;;1.20;;
18857;SDS011;9558;50.178;8.370;2023-05-17T06:18:50;3.75;;;0.95;;
18857;SDS011;9558;50.178;8.370;2023-05-17T06:21:36;5.30;;;0.98;;
18857;SDS011;9558;50.178;8.370;2023-05-17T06:24:23;1.95;;;1.05;;
18857;SDS011;9558;50.178;8.370;2023-05-17T06:27:10;2.72;;;1.30;;
18857;SDS011;9558;50.178;8.370;2023-05-17T06:29:58;3.67;;;1.70;;
18857;SDS011;9558;50.178;8.370;2023-05-17T06:32:46;2.05;;;1.42;;
18857;SDS011;9558;50.178;8.370;2023-05-17T06:35:33;2.40;;;1.02;;
18857;SDS011;9558;50.178;8.370;2023-05-17T06:38:20;4.28;;;1.50;;
18857;SDS011;9558;50.178;8.370;2023-05-17T06:41:07;9.43;;;1.60;;
18857;SDS011;9558;50.178;8.370;2023-05-17T06:43:53;2.92;;;1.30;;
18857;SDS011;9558;50.178;8.370;2023-05-17T06:46:42;3.80;;;1.15;;
18857;SDS011;9558;50.178;8.370;2023-05-17T06:49:28;1.85;;;1.23;;
18857;SDS011;9558;50.178;8.370;2023-05-17T06:52:15;3.20;;;1.30;;
18857;SDS011;9558;50.178;8.370;2023-05-17T06:55:02;3.97;;;1.20;;
18857;SDS011;9558;50.178;8.370;2023-05-17T06:57:50;4.30;;;1.42;;
18857;SDS011;9558;50.178;8.370;2023-05-17T07:00:37;5.28;;;1.45;;
18857;SDS011;9558;50.178;8.370;2023-05-17T07:03:25;3.38;;;1.50;;
18857;SDS011;9558;50.178;8.370;2023-05-17T07:06:12;9.25;;;1.75;;
18857;SDS011;9558;50.178;8.370;2023-05-17T07:08:59;6.38;;;1.45;;
18857;SDS011;9558;50.178;8.370;2023-05-17T07:11:46;2.05;;;1.08;;
18857;SDS011;9558;50.178;8.370;2023-05-17T07:14:33;2.63;;;0.90;;
18857;SDS011;9558;50.178;8.370;2023-05-17T07:17:19;4.03;;;1.20;;
18857;SDS011;9558;50.178;8.370;2023-05-17T07:20:08;4.93;;;1.27;;
18857;SDS011;9558;50.178;8.370;2023-05-17T07:22:56;6.18;;;1.17;;
18857;SDS011;9558;50.178;8.370;2023-05-17T07:25:42;3.42;;;1.17;;
18857;SDS011;9558;50.178;8.370;2023-05-17T07:28:30;4.75;;;1.55;;
18857;SDS011;9558;50.178;8.370;2023-05-17T07:31:17;5.20;;;1.73;;
18857;SDS011;9558;50.178;8.370;2023-05-17T07:34:04;2.60;;;1.05;;
18857;SDS011;9558;50.178;8.370;2023-05-17T07:36:52;1.90;;;1.20;;
18857;SDS011;9558;50.178;8.370;2023-05-17T07:39:39;8.27;;;1.40;;
18857;SDS011;9558;50.178;8.370;2023-05-17T07:42:26;4.63;;;0.95;;
18857;SDS011;9558;50.178;8.370;2023-05-17T07:45:12;4.93;;;1.33;;
18857;SDS011;9558;50.178;8.370;2023-05-17T07:47:59;9.02;;;1.40;;
18857;SDS011;9558;50.178;8.370;2023-05-17T07:50:46;2.78;;;0.95;;
18857;SDS011;9558;50.178;8.370;2023-05-17T07:53:35;4.05;;;0.82;;
18857;SDS011;9558;50.178;8.370;2023-05-17T07:56:22;3.88;;;1.33;;
18857;SDS011;9558;50.178;8.370;2023-05-17T07:59:08;2.70;;;1.27;;
18857;SDS011;9558;50.178;8.370;2023-05-17T08:01:55;3.95;;;1.15;;
18857;SDS011;9558;50.178;8.370;2023-05-17T08:04:42;4.60;;;1.20;;
18857;SDS011;9558;50.178;8.370;2023-05-17T08:07:30;2.03;;;0.90;;
18857;SDS011;9558;50.178;8.370;2023-05-17T08:10:18;1.50;;;1.10;;
18857;SDS011;9558;50.178;8.370;2023-05-17T08:13:05;1.77;;;0.70;;
18857;SDS011;9558;50.178;8.370;2023-05-17T08:15:52;3.78;;;1.15;;
18857;SDS011;9558;50.178;8.370;2023-05-17T08:18:40;2.47;;;1.08;;
18857;SDS011;9558;50.178;8.370;2023-05-17T08:21:26;2.70;;;0.88;;
18857;SDS011;9558;50.178;8.370;2023-05-17T08:24:14;2.47;;;0.90;;
18857;SDS011;9558;50.178;8.370;2023-05-17T08:27:03;6.10;;;0.90;;
18857;SDS011;9558;50.178;8.370;2023-05-17T08:29:50;2.17;;;1.20;;
18857;SDS011;9558;50.178;8.370;2023-05-17T08:32:39;4.93;;;1.20;;
18857;SDS011;9558;50.178;8.370;2023-05-17T08:35:26;2.67;;;1.15;;
18857;SDS011;9558;50.178;8.370;2023-05-17T08:38:12;5.68;;;1.42;;
18857;SDS011;9558;50.178;8.370;2023-05-17T08:40:59;2.67;;;1.42;;
18857;SDS011;9558;50.178;8.370;2023-05-17T08:43:48;4.13;;;1.30;;
18857;SDS011;9558;50.178;8.370;2023-05-17T08:46:37;4.18;;;1.35;;
18857;SDS011;9558;50.178;8.370;2023-05-17T08:49:26;3.85;;;1.27;;
18857;SDS011;9558;50.178;8.370;2023-05-17T08:52:14;1.90;;;1.05;;
18857;SDS011;9558;50.178;8.370;2023-05-17T08:55:01;6.32;;;1.40;;
18857;SDS011;9558;50.178;8.370;2023-05-17T08:57:50;3.03;;;1.50;;
18857;SDS011;9558;50.178;8.370;2023-05-17T09:00:38;3.30;;;1.70;;
18857;SDS011;9558;50.178;8.370;2023-05-17T09:03:26;1.80;;;1.10;;
18857;SDS011;9558;50.178;8.370;2023-05-17T09:06:15;5.28;;;1.23;;
18857;SDS011;9558;50.178;8.370;2023-05-17T09:09:03;5.50;;;1.38;;
18857;SDS011;9558;50.178;8.370;2023-05-17T09:11:51;3.03;;;1.17;;
18857;SDS011;9558;50.178;8.370;2023-05-17T09:14:38;3.15;;;1.17;;
18857;SDS011;9558;50.178;8.370;2023-05-17T09:17:26;2.22;;;0.90;;
18857;SDS011;9558;50.178;8.370;2023-05-17T09:20:13;2.60;;;1.05;;
18857;SDS011;9558;50.178;8.370;2023-05-17T09:23:08;2.10;;;1.00;;
18857;SDS011;9558;50.178;8.370;2023-05-17T09:26:02;2.95;;;1.20;;
18857;SDS011;9558;50.178;8.370;2023-05-17T09:28:49;7.35;;;1.73;;
18857;SDS011;9558;50.178;8.370;2023-05-17T09:31:38;3.50;;;1.58;;
18857;SDS011;9558;50.178;8.370;2023-05-17T09:34:26;4.00;;;1.50;;
18857;SDS011;9558;50.178;8.370;2023-05-17T09:37:13;5.57;;;1.30;;
18857;SDS011;9558;50.178;8.370;2023-05-17T09:40:01;3.20;;;1.48;;
18857;SDS011;9558;50.178;8.370;2023-05-17T09:42:48;2.08;;;1.17;;
18857;SDS011;9558;50.178;8.370;2023-05-17T09:45:35;4.40;;;1.10;;
18857;SDS011;9558;50.178;8.370;2023-05-17T09:48:26;2.10;;;1.40;;
18857;SDS011;9558;50.178;8.370;2023-05-17T09:51:14;2.33;;;1.15;;
18857;SDS011;9558;50.178;8.370;2023-05-17T09:54:01;5.32;;;1.15;;
18857;SDS011;9558;50.178;8.370;2023-05-17T09:56:52;2.85;;;1.33;;
18857;SDS011;9558;50.178;8.370;2023-05-17T09:59:40;4.22;;;1.70;;
18857;SDS011;9558;50.178;8.370;2023-05-17T10:02:27;3.47;;;1.30;;
18857;SDS011;9558;50.178;8.370;2023-05-17T10:05:17;2.25;;;0.95;;
18857;SDS011;9558;50.178;8.370;2023-05-17T10:08:07;4.35;;;1.40;;
18857;SDS011;9558;50.178;8.370;2023-05-17T10:10:55;2.15;;;1.13;;
18857;SDS011;9558;50.178;8.370;2023-05-17T10:13:45;1.25;;;0.80;;
18857;SDS011;9558;50.178;8.370;2023-05-17T10:16:35;2.60;;;1.10;;
18857;SDS011;9558;50.178;8.370;2023-05-17T10:19:23;4.85;;;1.30;;
18857;SDS011;9558;50.178;8.370;2023-05-17T10:22:10;2.50;;;1.05;;
18857;SDS011;9558;50.178;8.370;2023-05-17T10:24:59;1.85;;;0.82;;
18857;SDS011;9558;50.178;8.370;2023-05-17T10:27:47;3.38;;;1.02;;
18857;SDS011;9558;50.178;8.370;2023-05-17T10:30:36;0.82;;;0.70;;
18857;SDS011;9558;50.178;8.370;2023-05-17T10:33:23;3.75;;;1.10;;
18857;SDS011;9558;50.178;8.370;2023-05-17T10:36:12;1.90;;;1.08;;
18857;SDS011;9558;50.178;8.370;2023-05-17T10:39:02;3.67;;;0.98;;
18857;SDS011;9558;50.178;8.370;2023-05-17T10:41:54;4.25;;;1.10;;
18857;SDS011;9558;50.178;8.370;2023-05-17T10:44:43;2.17;;;0.80;;
18857;SDS011;9558;50.178;8.370;2023-05-17T10:47:30;2.35;;;0.93;;
18857;SDS011;9558;50.178;8.370;2023-05-17T10:50:20;3.40;;;1.25;;
18857;SDS011;9558;50.178;8.370;2023-05-17T10:53:08;3.78;;;1.02;;
18857;SDS011;9558;50.178;8.370;2023-05-17T10:55:56;3.20;;;1.38;;
18857;SDS011;9558;50.178;8.370;2023-05-17T10:58:45;0.98;;;0.70;;
18857;SDS011;9558;50.178;8.370;2023-05-17T11:01:47;3.45;;;0.90;;
18857;SDS011;9558;50.178;8.370;2023-05-17T11:04:36;0.75;;;0.50;;
18857;SDS011;9558;50.178;8.370;2023-05-17T11:07:27;7.43;;;1.58;;
18857;SDS011;9558;50.178;8.370;2023-05-17T11:10:16;2.13;;;0.70;;
18857;SDS011;9558;50.178;8.370;2023-05-17T11:13:14;2.42;;;0.80;;
18857;SDS011;9558;50.178;8.370;2023-05-17T11:16:13;2.22;;;0.73;;
18857;SDS011;9558;50.178;8.370;2023-05-17T11:19:05;4.15;;;0.60;;
18857;SDS011;9558;50.178;8.370;2023-05-17T11:21:53;3.72;;;0.80;;
18857;SDS011;9558;50.178;8.370;2023-05-17T11:24:40;1.17;;;0.57;;
18857;SDS011;9558;50.178;8.370;2023-05-17T11:27:32;4.78;;;1.00;;
18857;SDS011;9558;50.178;8.370;2023-05-17T11:30:23;4.75;;;0.60;;
18857;SDS011;9558;50.178;8.370;2023-05-17T11:33:14;1.80;;;0.40;;
18857;SDS011;9558;50.178;8.370;2023-05-17T11:36:02;1.00;;;0.40;;
18857;SDS011;9558;50.178;8.370;2023-05-17T11:41:56;2.05;;;0.70;;
18857;SDS011;9558;50.178;8.370;2023-05-17T11:44:43;2.75;;;0.70;;
18857;SDS011;9558;50.178;8.370;2023-05-17T11:47:30;1.02;;;0.60;;
18857;SDS011;9558;50.178;8.370;2023-05-17T11:50:19;5.65;;;0.80;;
18857;SDS011;9558;50.178;8.370;2023-05-17T11:53:07;2.65;;;0.60;;
18857;SDS011;9558;50.178;8.370;2023-05-17T11:55:54;0.40;;;0.40;;
18857;SDS011;9558;50.178;8.370;2023-05-17T11:58:43;1.60;;;0.73;;
18857;SDS011;9558;50.178;8.370;2023-05-17T12:01:41;4.78;;;0.63;;
18857;SDS011;9558;50.178;8.370;2023-05-17T12:04:28;1.52;;;0.57;;
18857;SDS011;9558;50.178;8.370;2023-05-17T12:07:16;3.15;;;0.93;;
18857;SDS011;9558;50.178;8.370;2023-05-17T12:10:03;4.60;;;0.80;;
18857;SDS011;9558;50.178;8.370;2023-05-17T12:12:51;3.83;;;0.50;;
18857;SDS011;9558;50.178;8.370;2023-05-17T12:15:38;2.85;;;1.02;;
18857;SDS011;9558;50.178;8.370;2023-05-17T12:18:33;0.82;;;0.63;;
18857;SDS011;9558;50.178;8.370;2023-05-17T12:21:21;4.97;;;0.73;;
18857;SDS011;9558;50.178;8.370;2023-05-17T12:24:10;1.42;;;0.50;;
18857;SDS011;9558;50.178;8.370;2023-05-17T12:26:57;2.92;;;0.77;;
18857;SDS011;9558;50.178;8.370;2023-05-17T12:29:43;1.33;;;0.52;;
18857;SDS011;9558;50.178;8.370;2023-05-17T12:32:30;1.52;;;0.70;;
18857;SDS011;9558;50.178;8.370;2023-05-17T12:35:18;3.58;;;0.50;;
18857;SDS011;9558;50.178;8.370;2023-05-17T12:38:05;1.60;;;0.70;;
18857;SDS011;9558;50.178;8.370;2023-05-17T12:40:54;2.80;;;0.63;;
18857;SDS011;9558;50.178;8.370;2023-05-17T12:43:42;2.15;;;0.50;;
18857;SDS011;9558;50.178;8.370;2023-05-17T12:46:30;5.45;;;1.17;;
18857;SDS011;9558;50.178;8.370;2023-05-17T12:49:17;0.47;;;0.38;;
18857;SDS011;9558;50.178;8.370;2023-05-17T12:52:06;4.47;;;1.08;;
18857;SDS011;9558;50.178;8.370;2023-05-17T12:54:53;2.42;;;0.85;;
18857;SDS011;9558;50.178;8.370;2023-05-17T12:57:48;3.13;;;0.55;;
18857;SDS011;9558;50.178;8.370;2023-05-17T13:00:35;1.92;;;0.70;;
18857;SDS011;9558;50.178;8.370;2023-05-17T13:03:22;3.70;;;0.70;;
18857;SDS011;9558;50.178;8.370;2023-05-17T13:06:09;2.60;;;0.65;;
18857;SDS011;9558;50.178;8.370;2023-05-17T13:08:59;2.50;;;0.70;;
18857;SDS011;9558;50.178;8.370;2023-05-17T13:11:49;4.57;;;0.90;;
18857;SDS011;9558;50.178;8.370;2023-05-17T13:14:38;0.60;;;0.50;;
18857;SDS011;9558;50.178;8.370;2023-05-17T13:17:32;3.00;;;0.40;;
18857;SDS011;9558;50.178;8.370;2023-05-17T13:20:20;3.22;;;0.50;;
18857;SDS011;9558;50.178;8.370;2023-05-17T13:23:08;2.97;;;0.63;;
18857;SDS011;9558;50.178;8.370;2023-05-17T13:25:55;0.60;;;0.55;;
18857;SDS011;9558;50.178;8.370;2023-05-17T13:28:42;1.77;;;0.57;;
18857;SDS011;9558;50.178;8.370;2023-05-17T13:31:31;3.85;;;0.55;;
18857;SDS011;9558;50.178;8.370;2023-05-17T13:34:18;2.47;;;0.50;;
18857;SDS011;9558;50.178;8.370;2023-05-17T13:37:05;5.50;;;1.00;;
18857;SDS011;9558;50.178;8.370;2023-05-17T13:39:52;1.15;;;0.52;;
18857;SDS011;9558;50.178;8.370;2023-05-17T13:42:40;1.10;;;0.50;;
18857;SDS011;9558;50.178;8.370;2023-05-17T13:45:27;5.38;;;0.95;;
18857;SDS011;9558;50.178;8.370;2023-05-17T13:48:16;1.88;;;0.35;;
18857;SDS011;9558;50.178;8.370;2023-05-17T13:51:02;3.42;;;1.08;;
18857;SDS011;9558;50.178;8.370;2023-05-17T13:53:49;4.15;;;0.93;;
18857;SDS011;9558;50.178;8.370;2023-05-17T13:56:37;2.65;;;0.60;;
18857;SDS011;9558;50.178;8.370;2023-05-17T13:59:24;2.38;;;0.85;;
18857;SDS011;9558;50.178;8.370;2023-05-17T14:02:10;2.05;;;0.60;;
18857;SDS011;9558;50.178;8.370;2023-05-17T14:04:59;2.03;;;0.77;;
18857;SDS011;9558;50.178;8.370;2023-05-17T14:07:46;3.38;;;0.75;;
18857;SDS011;9558;50.178;8.370;2023-05-17T14:10:33;2.78;;;1.05;;
18857;SDS011;9558;50.178;8.370;2023-05-17T14:13:20;3.08;;;1.20;;
18857;SDS011;9558;50.178;8.370;2023-05-17T14:16:07;3.53;;;0.60;;
18857;SDS011;9558;50.178;8.370;2023-05-17T14:18:54;1.10;;;0.40;;
18857;SDS011;9558;50.178;8.370;2023-05-17T14:21:42;2.10;;;0.45;;
18857;SDS011;9558;50.178;8.370;2023-05-17T14:24:29;5.72;;;1.05;;
18857;SDS011;9558;50.178;8.370;2023-05-17T14:27:16;4.25;;;0.77;;
18857;SDS011;9558;50.178;8.370;2023-05-17T14:30:03;5.10;;;1.30;;
18857;SDS011;9558;50.178;8.370;2023-05-17T14:32:50;1.63;;;0.98;;
18857;SDS011;9558;50.178;8.370;2023-05-17T14:35:37;2.42;;;0.57;;
18857;SDS011;9558;50.178;8.370;2023-05-17T14:38:25;3.47;;;0.60;;
18857;SDS011;9558;50.178;8.370;2023-05-17T14:41:12;2.35;;;0.50;;
18857;SDS011;9558;50.178;8.370;2023-05-17T14:43:59;4.28;;;0.73;;
18857;SDS011;9558;50.178;8.370;2023-05-17T14:46:45;2.03;;;0.50;;
18857;SDS011;9558;50.178;8.370;2023-05-17T14:49:32;1.98;;;0.60;;
18857;SDS011;9558;50.178;8.370;2023-05-17T14:52:19;6.78;;;0.60;;
18857;SDS011;9558;50.178;8.370;2023-05-17T14:55:08;2.00;;;0.70;;
18857;SDS011;9558;50.178;8.370;2023-05-17T14:57:55;4.03;;;0.93;;
18857;SDS011;9558;50.178;8.370;2023-05-17T15:00:42;1.48;;;0.57;;
18857;SDS011;9558;50.178;8.370;2023-05-17T15:03:31;1.20;;;0.47;;
18857;SDS011;9558;50.178;8.370;2023-05-17T15:06:18;2.58;;;0.60;;
18857;SDS011;9558;50.178;8.370;2023-05-17T15:09:09;3.47;;;0.70;;
18857;SDS011;9558;50.178;8.370;2023-05-17T15:11:59;1.85;;;0.50;;
18857;SDS011;9558;50.178;8.370;2023-05-17T15:14:46;4.85;;;0.65;;
18857;SDS011;9558;50.178;8.370;2023-05-17T15:17:33;1.10;;;0.50;;
18857;SDS011;9558;50.178;8.370;2023-05-17T15:20:20;2.38;;;0.70;;
18857;SDS011;9558;50.178;8.370;2023-05-17T15:23:08;1.88;;;0.57;;
18857;SDS011;9558;50.178;8.370;2023-05-17T15:25:56;1.88;;;0.65;;
18857;SDS011;9558;50.178;8.370;2023-05-17T15:28:44;3.08;;;0.70;;
18857;SDS011;9558;50.178;8.370;2023-05-17T15:31:34;3.70;;;0.68;;
18857;SDS011;9558;50.178;8.370;2023-05-17T15:34:21;4.13;;;0.45;;
18857;SDS011;9558;50.178;8.370;2023-05-17T15:37:10;3.80;;;0.80;;
18857;SDS011;9558;50.178;8.370;2023-05-17T15:39:58;4.07;;;1.10;;
18857;SDS011;9558;50.178;8.370;2023-05-17T15:42:53;4.18;;;0.60;;
18857;SDS011;9558;50.178;8.370;2023-05-17T15:45:41;4.85;;;0.85;;
18857;SDS011;9558;50.178;8.370;2023-05-17T15:48:28;2.85;;;0.90;;
18857;SDS011;9558;50.178;8.370;2023-05-17T15:51:15;4.63;;;1.05;;
18857;SDS011;9558;50.178;8.370;2023-05-17T15:54:02;4.50;;;0.98;;
18857;SDS011;9558;50.178;8.370;2023-05-17T15:56:49;4.32;;;0.70;;
18857;SDS011;9558;50.178;8.370;2023-05-17T15:59:36;3.50;;;0.80;;
18857;SDS011;9558;50.178;8.370;2023-05-17T16:02:24;4.25;;;0.80;;
18857;SDS011;9558;50.178;8.370;2023-05-17T16:05:11;3.03;;;0.50;;
18857;SDS011;9558;50.178;8.370;2023-05-17T16:07:58;2.95;;;0.70;;
18857;SDS011;9558;50.178;8.370;2023-05-17T16:10:45;1.40;;;0.65;;
18857;SDS011;9558;50.178;8.370;2023-05-17T16:13:32;5.47;;;0.88;;
18857;SDS011;9558;50.178;8.370;2023-05-17T16:16:18;2.72;;;0.60;;
18857;SDS011;9558;50.178;8.370;2023-05-17T16:19:07;1.88;;;0.73;;
18857;SDS011;9558;50.178;8.370;2023-05-17T16:21:53;0.40;;;0.38;;
18857;SDS011;9558;50.178;8.370;2023-05-17T16:24:42;4.50;;;0.73;;
18857;SDS011;9558;50.178;8.370;2023-05-17T16:27:28;4.78;;;0.95;;
18857;SDS011;9558;50.178;8.370;2023-05-17T16:30:16;1.45;;;0.52;;
18857;SDS011;9558;50.178;8.370;2023-05-17T16:33:03;3.05;;;0.70;;
18857;SDS011;9558;50.178;8.370;2023-05-17T16:35:52;1.50;;;0.47;;
18857;SDS011;9558;50.178;8.370;2023-05-17T16:38:39;2.05;;;0.80;;
18857;SDS011;9558;50.178;8.370;2023-05-17T16:41:26;4.32;;;0.80;;
18857;SDS011;9558;50.178;8.370;2023-05-17T16:44:15;3.45;;;0.85;;
18857;SDS011;9558;50.178;8.370;2023-05-17T16:47:02;1.52;;;0.70;;
18857;SDS011;9558;50.178;8.370;2023-05-17T16:49:49;3.47;;;0.68;;
18857;SDS011;9558;50.178;8.370;2023-05-17T16:52:37;1.70;;;0.65;;
18857;SDS011;9558;50.178;8.370;2023-05-17T16:55:25;1.23;;;0.77;;
18857;SDS011;9558;50.178;8.370;2023-05-17T16:58:11;6.40;;;0.70;;
18857;SDS011;9558;50.178;8.370;2023-05-17T17:00:59;1.42;;;0.60;;
18857;SDS011;9558;50.178;8.370;2023-05-17T17:03:55;3.50;;;0.80;;
18857;SDS011;9558;50.178;8.370;2023-05-17T17:06:42;1.70;;;0.70;;
18857;SDS011;9558;50.178;8.370;2023-05-17T17:09:30;0.98;;;0.68;;
18857;SDS011;9558;50.178;8.370;2023-05-17T17:12:17;1.98;;;0.75;;
18857;SDS011;9558;50.178;8.370;2023-05-17T17:15:04;2.30;;;0.55;;
18857;SDS011;9558;50.178;8.370;2023-05-17T17:17:52;1.70;;;0.73;;
18857;SDS011;9558;50.178;8.370;2023-05-17T17:20:38;5.22;;;0.82;;
18857;SDS011;9558;50.178;8.370;2023-05-17T17:23:25;3.08;;;0.88;;
18857;SDS011;9558;50.178;8.370;2023-05-17T17:26:13;9.15;;;0.77;;
18857;SDS011;9558;50.178;8.370;2023-05-17T17:29:00;1.38;;;0.73;;
18857;SDS011;9558;50.178;8.370;2023-05-17T17:31:48;4.43;;;1.00;;
18857;SDS011;9558;50.178;8.370;2023-05-17T17:34:35;4.95;;;1.00;;
18857;SDS011;9558;50.178;8.370;2023-05-17T17:37:21;1.63;;;0.65;;
18857;SDS011;9558;50.178;8.370;2023-05-17T17:40:08;2.15;;;0.70;;
18857;SDS011;9558;50.178;8.370;2023-05-17T17:42:58;3.53;;;1.00;;
18857;SDS011;9558;50.178;8.370;2023-05-17T17:45:45;2.08;;;0.70;;
18857;SDS011;9558;50.178;8.370;2023-05-17T17:48:31;7.15;;;0.88;;
18857;SDS011;9558;50.178;8.370;2023-05-17T17:51:18;2.33;;;0.82;;
18857;SDS011;9558;50.178;8.370;2023-05-17T17:54:05;5.20;;;1.17;;
18857;SDS011;9558;50.178;8.370;2023-05-17T17:56:52;0.73;;;0.65;;
18857;SDS011;9558;50.178;8.370;2023-05-17T17:59:41;4.40;;;0.80;;
18857;SDS011;9558;50.178;8.370;2023-05-17T18:02:28;1.95;;;0.77;;
18857;SDS011;9558;50.178;8.370;2023-05-17T18:05:15;5.65;;;0.77;;
18857;SDS011;9558;50.178;8.370;2023-05-17T18:08:01;2.65;;;0.57;;
18857;SDS011;9558;50.178;8.370;2023-05-17T18:10:48;3.90;;;1.00;;
18857;SDS011;9558;50.178;8.370;2023-05-17T18:13:35;5.25;;;0.88;;